Time;durP1;ratioP1;P1;durP2;ratioP2;P2;SDS_P1;SDS_P2;PMS_P1;PMS_P2;Temp;Humidity;BMP_temperature;BMP_pressure;BME280_temperature;BME280_humidity;BME280_pressure;Samples;Min_cycle;Max_cycle;Signal;HPM_P1;HPM_P2
2021/10/04 00:00:31;;;;;;;;;;;;;;;11.32;86.92;98938.02;112276;1193;61119;-88
2021/10/04 00:03:09;;;;;;;;;;;;;;;11.29;87.04;98935.89;112236;1193;64629;-89
2021/10/04 00:05:36;;;;;;;;;;;;;;;11.27;87.18;98938.69;112282;1193;61071;-88
2021/10/04 00:08:02;;;;;;;;;;;;;;;11.26;87.11;98939.16;112269;1196;61138;-90
2021/10/04 00:10:29;;;;;;;;;;;;;;;11.24;87.16;98940.20;112224;1193;60951;-90
2021/10/04 00:12:56;;;;;;;;;;;;;;;11.21;87.32;98938.09;112303;1194;61106;-88
2021/10/04 00:15:24;;;;;;;;;;;;;;;11.17;87.20;98940.64;112281;1193;66021;-88
2021/10/04 00:17:51;;;;;;;;;;;;;;;11.14;87.42;98944.41;112258;1193;61038;-89
2021/10/04 00:20:18;;;;;;;;;;;;;;;11.10;87.52;98940.40;112224;1196;62624;-88
2021/10/04 00:22:45;;;;;;;;;;;;;;;11.07;87.48;98939.45;112204;1193;61023;-88
2021/10/04 00:25:12;;;;;;;;;;;;;;;11.02;87.68;98940.63;112283;1193;61525;-88
2021/10/04 00:27:39;;;;;;;;;;;;;;;10.99;87.85;98941.54;112264;1193;66067;-88
2021/10/04 00:30:07;;;;;;;;;;;;;;;10.97;87.91;98942.54;112229;1193;60981;-89
2021/10/04 00:32:35;;;;;;;;;;;;;;;10.95;88.06;98941.65;112254;1193;62621;-89
2021/10/04 00:35:03;;;;;;;;;;;;;;;10.91;88.08;98939.42;112249;1193;61013;-88
2021/10/04 00:37:30;;;;;;;;;;;;;;;10.90;88.41;98935.59;112272;1193;61844;-88
2021/10/04 00:39:57;;;;;;;;;;;;;;;10.90;88.31;98931.52;112220;1193;64544;-89
2021/10/04 00:42:24;;;;;;;;;;;;;;;10.88;88.55;98929.55;112224;1196;61011;-91
2021/10/04 00:44:51;;;;;;;;;;;;;;;10.86;88.65;98931.10;112290;1193;64065;-88
2021/10/04 00:47:18;;;;;;;;;;;;;;;10.84;88.52;98935.52;112307;1193;60987;-89
2021/10/04 00:49:45;;;;;;;;;;;;;;;10.81;88.55;98933.41;112309;1193;61006;-89
2021/10/04 00:52:11;;;;;;;;;;;;;;;10.78;88.66;98933.27;112283;1193;64690;-89
2021/10/04 00:54:38;;;;;;;;;;;;;;;10.76;88.87;98930.36;112243;1193;60982;-89
2021/10/04 00:57:05;;;;;;;;;;;;;;;10.76;88.88;98934.96;112256;1193;64038;-89
2021/10/04 00:59:33;;;;;;;;;;;;;;;10.76;89.03;98932.31;112258;1193;60988;-89
2021/10/04 01:02:00;;;;;;;;;;;;;;;10.76;89.04;98936.01;112335;1193;61030;-89
2021/10/04 01:04:27;;;;;;;;;;;;;;;10.76;89.10;98934.59;112284;1193;66062;-89
2021/10/04 01:06:55;;;;;;;;;;;;;;;10.76;89.15;98932.11;112281;1193;61087;-89
2021/10/04 01:09:21;;;;;;;;;;;;;;;10.76;89.14;98931.09;112315;1193;64123;-89
2021/10/04 01:11:48;;;;;;;;;;;;;;;10.74;89.16;98927.13;112214;1196;61122;-89
2021/10/04 01:14:14;;;;;;;;;;;;;;;10.73;89.17;98926.31;112313;1193;61072;-89
2021/10/04 01:16:41;;;;;;;;;;;;;;;10.69;89.29;98931.33;112238;1193;66018;-89
2021/10/04 01:19:07;;;;;;;;;;;;;;;10.67;89.34;98931.29;112318;1193;61086;-89
2021/10/04 01:21:34;;;;;;;;;;;;;;;10.66;89.40;98934.02;112265;1193;60975;-89
2021/10/04 01:24:01;;;;;;;;;;;;;;;10.64;89.34;98927.58;112201;1193;61500;-88
2021/10/04 01:26:27;;;;;;;;;;;;;;;10.63;89.46;98929.84;112250;1196;60984;-89
2021/10/04 01:28:54;;;;;;;;;;;;;;;10.61;89.51;98927.86;112279;1193;65856;-89
2021/10/04 01:31:23;;;;;;;;;;;;;;;10.57;89.53;98926.69;112254;1193;61064;-88
2021/10/04 01:33:51;;;;;;;;;;;;;;;10.53;89.73;98927.44;112268;1193;62758;-88
2021/10/04 01:36:20;;;;;;;;;;;;;;;10.51;89.82;98929.38;112309;1193;60924;-88
2021/10/04 01:38:46;;;;;;;;;;;;;;;10.49;89.96;98928.09;112253;1193;61061;-88
2021/10/04 01:41:13;;;;;;;;;;;;;;;10.47;90.02;98928.77;112250;1196;66954;-88
2021/10/04 01:43:40;;;;;;;;;;;;;;;10.46;90.12;98928.27;112307;1193;62625;-89
2021/10/04 01:46:06;;;;;;;;;;;;;;;10.46;90.15;98926.35;112239;1196;62633;-88
2021/10/04 01:48:33;;;;;;;;;;;;;;;10.46;90.32;98927.27;112271;1193;60975;-89
2021/10/04 01:50:59;;;;;;;;;;;;;;;10.45;90.30;98926.05;112308;1193;60978;-89
2021/10/04 01:53:26;;;;;;;;;;;;;;;10.44;90.32;98927.77;112209;1193;66027;-89
2021/10/04 01:55:52;;;;;;;;;;;;;;;10.43;90.49;98924.64;112317;1193;61032;-90
2021/10/04 01:58:19;;;;;;;;;;;;;;;10.42;90.52;98924.48;112430;1193;61000;-88
2021/10/04 02:00:46;;;;;;;;;;;;;;;10.39;90.50;98923.27;112505;1193;61042;-90
2021/10/04 02:03:13;;;;;;;;;;;;;;;10.37;90.71;98926.79;113339;1193;61030;-87
2021/10/04 02:05:39;;;;;;;;;;;;;;;10.34;90.74;98927.32;112806;1193;65989;-89
2021/10/04 02:08:06;;;;;;;;;;;;;;;10.31;90.83;98926.41;113102;1193;61041;-87
2021/10/04 02:10:35;;;;;;;;;;;;;;;10.29;90.92;98924.13;113212;1193;60978;-89
2021/10/04 02:13:04;;;;;;;;;;;;;;;10.27;90.85;98927.63;112425;1193;61017;-90
2021/10/04 02:15:31;;;;;;;;;;;;;;;10.25;90.97;98926.82;112190;1195;60950;-92
2021/10/04 02:17:58;;;;;;;;;;;;;;;10.24;91.01;98928.16;112209;1196;66022;-89
2021/10/04 02:20:26;;;;;;;;;;;;;;;10.23;91.25;98925.39;112266;1193;61061;-90
2021/10/04 02:22:53;;;;;;;;;;;;;;;10.22;91.32;98931.46;112291;1193;62760;-90
2021/10/04 02:25:21;;;;;;;;;;;;;;;10.22;91.35;98931.33;112237;1194;61061;-89
2021/10/04 02:27:48;;;;;;;;;;;;;;;10.22;91.44;98932.75;112345;1193;61007;-88
2021/10/04 02:30:17;;;;;;;;;;;;;;;10.21;91.54;98936.52;112237;1193;66150;-88
2021/10/04 02:32:44;;;;;;;;;;;;;;;10.21;91.46;98933.11;112235;1195;61128;-88
2021/10/04 02:35:10;;;;;;;;;;;;;;;10.22;91.44;98936.98;112287;1193;62609;-88
2021/10/04 02:37:37;;;;;;;;;;;;;;;10.21;91.45;98941.10;112226;1193;61074;-89
2021/10/04 02:40:05;;;;;;;;;;;;;;;10.21;91.46;98939.52;112267;1193;61048;-89
2021/10/04 02:42:33;;;;;;;;;;;;;;;10.20;91.50;98936.79;112249;1194;66019;-88
2021/10/04 02:44:59;;;;;;;;;;;;;;;10.18;91.56;98934.77;112283;1193;60985;-88
2021/10/04 02:47:27;;;;;;;;;;;;;;;10.17;91.65;98938.90;112238;1193;64123;-88
2021/10/04 02:49:53;;;;;;;;;;;;;;;10.15;91.64;98936.24;112280;1193;60963;-88
2021/10/04 02:52:21;;;;;;;;;;;;;;;10.09;91.55;98936.57;112256;1193;61029;-88
2021/10/04 02:54:47;;;;;;;;;;;;;;;10.07;91.66;98936.90;112298;1193;64636;-89
2021/10/04 02:57:14;;;;;;;;;;;;;;;10.04;91.72;98940.30;112246;1193;61096;-90
2021/10/04 02:59:40;;;;;;;;;;;;;;;10.02;91.94;98939.89;112345;1193;61052;-89
2021/10/04 03:02:07;;;;;;;;;;;;;;;10.01;92.02;98943.15;112237;1193;61007;-89
2021/10/04 03:04:34;;;;;;;;;;;;;;;10.00;91.89;98942.52;112306;1193;61029;-89
2021/10/04 03:07:00;;;;;;;;;;;;;;;9.97;91.97;98939.50;112310;1193;66050;-89
2021/10/04 03:09:27;;;;;;;;;;;;;;;9.95;92.15;98939.11;112279;1193;60988;-89
2021/10/04 03:11:53;;;;;;;;;;;;;;;9.93;92.18;98939.60;112284;1193;61068;-89
2021/10/04 03:14:20;;;;;;;;;;;;;;;9.93;92.41;98945.09;112276;1193;61042;-90
2021/10/04 03:16:46;;;;;;;;;;;;;;;9.94;92.35;98950.88;112374;1193;61137;-88
2021/10/04 03:19:13;;;;;;;;;;;;;;;9.94;92.35;98950.35;112270;1193;64645;-88
2021/10/04 03:21:39;;;;;;;;;;;;;;;9.94;92.48;98954.12;112267;1193;61077;-88
2021/10/04 03:24:07;;;;;;;;;;;;;;;9.92;92.52;98952.60;112239;1193;61368;-88
2021/10/04 03:26:33;;;;;;;;;;;;;;;9.91;92.60;98953.05;112254;1193;61285;-89
2021/10/04 03:29:00;;;;;;;;;;;;;;;9.89;92.54;98954.45;112201;1193;61068;-89
2021/10/04 03:31:27;;;;;;;;;;;;;;;9.87;92.57;98951.70;112165;1193;61045;-89
2021/10/04 03:33:54;;;;;;;;;;;;;;;9.87;92.63;98961.13;112297;1193;61061;-89
2021/10/04 03:36:20;;;;;;;;;;;;;;;9.85;92.80;98957.68;112230;1193;61026;-89
2021/10/04 03:38:47;;;;;;;;;;;;;;;9.84;92.77;98953.99;112195;1194;61067;-89
2021/10/04 03:41:13;;;;;;;;;;;;;;;9.84;92.82;98952.39;112274;1193;60975;-89
2021/10/04 03:43:40;;;;;;;;;;;;;;;9.85;92.87;98954.83;112216;1194;67014;-90
2021/10/04 03:46:06;;;;;;;;;;;;;;;9.86;92.91;98955.80;112227;1193;61041;-89
2021/10/04 03:48:33;;;;;;;;;;;;;;;9.88;92.99;98958.20;112218;1194;61050;-89
2021/10/04 03:50:59;;;;;;;;;;;;;;;9.90;93.07;98956.15;112315;1193;61169;-89
2021/10/04 03:53:26;;;;;;;;;;;;;;;9.93;93.16;98954.20;112249;1193;61055;-89
2021/10/04 03:55:52;;;;;;;;;;;;;;;9.93;93.22;98953.80;112275;1193;61037;-89
2021/10/04 03:58:19;;;;;;;;;;;;;;;9.95;93.11;98955.48;112274;1193;61090;-89
2021/10/04 04:00:45;;;;;;;;;;;;;;;9.95;93.07;98957.23;112288;1193;61052;-89
2021/10/04 04:03:12;;;;;;;;;;;;;;;9.96;93.13;98959.14;112270;1193;61581;-89
2021/10/04 04:05:38;;;;;;;;;;;;;;;9.97;93.38;98958.49;112193;1194;61028;-88
2021/10/04 04:08:05;;;;;;;;;;;;;;;9.97;93.25;98960.44;112262;1195;61036;-88
2021/10/04 04:10:32;;;;;;;;;;;;;;;9.98;93.34;98958.61;112303;1193;61064;-89
2021/10/04 04:12:58;;;;;;;;;;;;;;;9.98;93.28;98955.77;112171;1195;64061;-90
2021/10/04 04:15:25;;;;;;;;;;;;;;;9.98;93.35;98955.41;112258;1193;61049;-89
2021/10/04 04:17:52;;;;;;;;;;;;;;;9.97;93.28;98951.91;112285;1193;61061;-89
2021/10/04 04:20:18;;;;;;;;;;;;;;;9.97;93.41;98951.94;112286;1193;64750;-89
2021/10/04 04:22:45;;;;;;;;;;;;;;;9.97;93.48;98955.15;112258;1194;61061;-88
2021/10/04 04:25:12;;;;;;;;;;;;;;;9.96;93.41;98953.94;112308;1193;62651;-90
2021/10/04 04:27:39;;;;;;;;;;;;;;;9.96;93.43;98955.18;112286;1193;61256;-90
2021/10/04 04:30:07;;;;;;;;;;;;;;;9.96;93.36;98957.48;112328;1193;61061;-90
2021/10/04 04:32:34;;;;;;;;;;;;;;;9.99;93.48;98958.58;112287;1193;66081;-89
2021/10/04 04:35:05;;;;;;;;;;;;;;;9.99;93.48;98961.89;112290;1193;61041;-90
2021/10/04 04:37:33;;;;;;;;;;;;;;;9.99;93.45;98961.73;112300;1193;62672;-90
2021/10/04 04:39:59;;;;;;;;;;;;;;;9.99;93.38;98961.89;112211;1193;60988;-91
2021/10/04 04:42:26;;;;;;;;;;;;;;;10.00;93.38;98967.70;112232;1193;61058;-87
2021/10/04 04:44:53;;;;;;;;;;;;;;;9.99;93.40;98967.21;112267;1193;66062;-89
2021/10/04 04:47:19;;;;;;;;;;;;;;;9.99;93.35;98972.05;112389;1193;61045;-90
2021/10/04 04:49:46;;;;;;;;;;;;;;;9.99;93.36;98965.30;112291;1193;60953;-87
2021/10/04 04:52:12;;;;;;;;;;;;;;;9.99;93.45;98965.63;112385;1193;60988;-89
2021/10/04 04:54:39;;;;;;;;;;;;;;;10.00;93.53;98967.87;112443;1193;61003;-91
2021/10/04 04:57:06;;;;;;;;;;;;;;;10.02;93.55;98967.77;113119;1195;61036;-89
2021/10/04 04:59:33;;;;;;;;;;;;;;;10.03;93.50;98966.24;112697;1193;61556;-89
2021/10/04 05:02:00;;;;;;;;;;;;;;;10.07;93.42;98965.46;112763;1193;63510;-88
2021/10/04 05:04:30;;;;;;;;;;;;;;;10.09;93.40;98965.55;113687;1193;59912;-87
2021/10/04 05:06:57;;;;;;;;;;;;;;;10.13;93.39;98968.64;112776;1193;61039;-88
2021/10/04 05:09:24;;;;;;;;;;;;;;;10.17;93.36;98969.65;112230;1193;64679;-87
2021/10/04 05:11:51;;;;;;;;;;;;;;;10.24;93.31;98970.78;112332;1193;61059;-87
2021/10/04 05:14:17;;;;;;;;;;;;;;;10.40;93.06;98975.40;112254;1193;60956;-88
2021/10/04 05:16:46;;;;;;;;;;;;;;;10.57;92.73;98976.76;112177;1195;61061;-88
2021/10/04 05:19:13;;;;;;;;;;;;;;;10.77;92.52;98976.70;112301;1194;61128;-89
2021/10/04 05:21:40;;;;;;;;;;;;;;;10.93;92.04;98978.79;112327;1193;64655;-89
2021/10/04 05:24:06;;;;;;;;;;;;;;;11.09;91.88;98980.88;112319;1193;61255;-88
2021/10/04 05:26:33;;;;;;;;;;;;;;;11.26;91.70;98978.77;112261;1193;60962;-88
2021/10/04 05:29:00;;;;;;;;;;;;;;;11.41;91.27;98983.77;112305;1193;61007;-89
2021/10/04 05:31:26;;;;;;;;;;;;;;;11.55;91.00;98982.60;112270;1194;61112;-89
2021/10/04 05:33:52;;;;;;;;;;;;;;;11.60;90.73;98985.77;112260;1193;61023;-89
2021/10/04 05:36:19;;;;;;;;;;;;;;;11.55;90.63;98989.08;112338;1193;61039;-89
2021/10/04 05:38:46;;;;;;;;;;;;;;;11.49;90.52;98993.42;112275;1193;63891;-89
2021/10/04 05:41:13;;;;;;;;;;;;;;;11.46;90.71;98995.17;112225;1193;61064;-89
2021/10/04 05:43:40;;;;;;;;;;;;;;;11.45;90.68;98993.84;112280;1193;60985;-89
2021/10/04 05:46:07;;;;;;;;;;;;;;;11.46;90.68;98997.70;112264;1193;66172;-88
2021/10/04 05:48:33;;;;;;;;;;;;;;;11.48;90.72;98999.46;112258;1193;60972;-89
2021/10/04 05:51:00;;;;;;;;;;;;;;;11.52;90.64;99002.73;112241;1193;63993;-89
2021/10/04 05:53:26;;;;;;;;;;;;;;;11.55;90.56;99005.39;112297;1193;61052;-88
2021/10/04 05:55:53;;;;;;;;;;;;;;;11.59;90.57;99003.52;112273;1193;61012;-89
2021/10/04 05:58:19;;;;;;;;;;;;;;;11.63;90.39;99005.19;112282;1193;66005;-88
2021/10/04 06:00:46;;;;;;;;;;;;;;;11.68;90.36;99000.93;112296;1193;61029;-89
2021/10/04 06:03:13;;;;;;;;;;;;;;;11.74;90.27;99004.23;112301;1193;62726;-88
2021/10/04 06:05:40;;;;;;;;;;;;;;;11.82;90.29;99007.03;112290;1193;61410;-88
2021/10/04 06:08:06;;;;;;;;;;;;;;;11.90;90.25;99006.86;112324;1193;61051;-88
2021/10/04 06:10:33;;;;;;;;;;;;;;;11.97;90.09;99007.39;112337;1193;60945;-88
2021/10/04 06:12:59;;;;;;;;;;;;;;;12.03;89.89;99008.71;112319;1193;60966;-88
2021/10/04 06:15:26;;;;;;;;;;;;;;;12.10;89.82;99012.21;112301;1193;64043;-90
2021/10/04 06:17:53;;;;;;;;;;;;;;;12.18;89.82;99016.95;112309;1193;61912;-88
2021/10/04 06:20:19;;;;;;;;;;;;;;;12.25;89.68;99019.77;112276;1193;61878;-89
2021/10/04 06:22:46;;;;;;;;;;;;;;;12.32;89.35;99022.16;112337;1193;65559;-89
2021/10/04 06:25:15;;;;;;;;;;;;;;;12.38;89.51;99022.93;112369;1193;61935;-89
2021/10/04 06:27:46;;;;;;;;;;;;;;;12.46;89.25;99021.08;112273;1193;62866;-88
2021/10/04 06:30:14;;;;;;;;;;;;;;;12.54;89.11;99020.33;112327;1193;61862;-88
2021/10/04 06:32:41;;;;;;;;;;;;;;;12.64;89.11;99019.58;112335;1193;61855;-88
2021/10/04 06:35:07;;;;;;;;;;;;;;;12.74;88.96;99019.01;112223;1193;65493;-88
2021/10/04 06:37:34;;;;;;;;;;;;;;;12.85;89.00;99021.02;112247;1193;61867;-88
2021/10/04 06:40:01;;;;;;;;;;;;;;;12.97;88.84;99025.80;112184;1193;64039;-88
2021/10/04 06:42:27;;;;;;;;;;;;;;;13.08;88.65;99027.29;112294;1193;61858;-88
2021/10/04 06:44:54;;;;;;;;;;;;;;;13.17;88.45;99029.11;112299;1193;61838;-88
2021/10/04 06:47:20;;;;;;;;;;;;;;;13.23;88.27;99034.89;112269;1196;67527;-89
2021/10/04 06:49:47;;;;;;;;;;;;;;;13.28;87.93;99038.98;112308;1193;61893;-89
2021/10/04 06:52:14;;;;;;;;;;;;;;;13.34;87.89;99042.45;112255;1193;61820;-88
2021/10/04 06:54:40;;;;;;;;;;;;;;;13.43;87.87;99044.26;112283;1193;61868;-88
2021/10/04 06:57:07;;;;;;;;;;;;;;;13.52;87.75;99046.73;112325;1193;61919;-88
2021/10/04 06:59:34;;;;;;;;;;;;;;;13.62;87.87;99046.13;112255;1195;66833;-89
2021/10/04 07:02:02;;;;;;;;;;;;;;;13.73;87.55;99046.00;112276;1193;61804;-89
2021/10/04 07:04:28;;;;;;;;;;;;;;;13.84;87.39;99046.91;112339;1193;62777;-88
2021/10/04 07:06:55;;;;;;;;;;;;;;;13.96;87.56;99045.76;112184;1193;61845;-89
2021/10/04 07:09:21;;;;;;;;;;;;;;;14.09;87.44;99050.12;112292;1193;61874;-89
2021/10/04 07:11:48;;;;;;;;;;;;;;;14.23;87.12;99051.14;112332;1193;66807;-89
2021/10/04 07:14:14;;;;;;;;;;;;;;;14.37;87.04;99052.50;112279;1195;61814;-89
2021/10/04 07:16:41;;;;;;;;;;;;;;;14.47;86.95;99057.33;112280;1193;62714;-89
2021/10/04 07:19:08;;;;;;;;;;;;;;;14.57;86.64;99057.70;112294;1195;61865;-88
2021/10/04 07:21:34;;;;;;;;;;;;;;;14.64;86.08;99056.95;112219;1193;61910;-88
2021/10/04 07:24:01;;;;;;;;;;;;;;;14.73;85.99;99060.42;112309;1193;65581;-89
2021/10/04 07:26:29;;;;;;;;;;;;;;;14.82;85.84;99060.02;112233;1193;61820;-89
2021/10/04 07:28:57;;;;;;;;;;;;;;;14.91;85.52;99058.02;112327;1193;62604;-89
2021/10/04 07:31:23;;;;;;;;;;;;;;;15.02;85.35;99062.13;112310;1196;61885;-89
2021/10/04 07:33:50;;;;;;;;;;;;;;;15.15;85.36;99060.33;112286;1193;61891;-89
2021/10/04 07:36:16;;;;;;;;;;;;;;;15.28;85.22;99059.38;112308;1193;61775;-89
2021/10/04 07:38:43;;;;;;;;;;;;;;;15.39;84.90;99060.47;112255;1196;61769;-89
2021/10/04 07:41:09;;;;;;;;;;;;;;;15.49;84.64;99064.05;112311;1193;61783;-88
2021/10/04 07:43:36;;;;;;;;;;;;;;;15.62;84.51;99062.59;112347;1193;61752;-89
2021/10/04 07:46:05;;;;;;;;;;;;;;;15.73;84.31;99065.00;112326;1193;61952;-89
2021/10/04 07:48:32;;;;;;;;;;;;;;;15.83;83.92;99062.90;112411;1193;65566;-90
2021/10/04 07:50:59;;;;;;;;;;;;;;;15.93;83.82;99057.56;112849;1193;61821;-88
2021/10/04 07:53:26;;;;;;;;;;;;;;;16.03;83.44;99054.33;113643;1193;62617;-88
2021/10/04 07:55:52;;;;;;;;;;;;;;;16.13;83.10;99054.36;113006;1193;61897;-89
2021/10/04 07:58:19;;;;;;;;;;;;;;;16.22;82.90;99050.98;113773;1193;61822;-89
2021/10/04 08:00:48;;;;;;;;;;;;;;;16.33;82.41;99050.93;113172;1193;66968;-89
2021/10/04 08:03:15;;;;;;;;;;;;;;;16.46;82.25;99056.46;112363;1196;61839;-89
2021/10/04 08:05:41;;;;;;;;;;;;;;;16.59;82.31;99058.15;112245;1193;61951;-90
2021/10/04 08:08:08;;;;;;;;;;;;;;;16.72;82.18;99061.24;112179;1193;61896;-90
2021/10/04 08:10:34;;;;;;;;;;;;;;;16.84;81.88;99063.44;112308;1193;61852;-91
2021/10/04 08:13:01;;;;;;;;;;;;;;;16.97;81.88;99059.51;112308;1193;66935;-90
2021/10/04 08:15:28;;;;;;;;;;;;;;;17.10;81.71;99057.78;112212;1195;61867;-91
2021/10/04 08:17:54;;;;;;;;;;;;;;;17.20;80.93;99058.66;112307;1193;62443;-90
2021/10/04 08:20:22;;;;;;;;;;;;;;;17.30;80.38;99057.81;112216;1194;61875;-90
2021/10/04 08:22:49;;;;;;;;;;;;;;;17.41;79.96;99057.20;112291;1193;61968;-90
2021/10/04 08:25:16;;;;;;;;;;;;;;;17.52;79.83;99056.15;112411;1193;65483;-88
2021/10/04 08:27:42;;;;;;;;;;;;;;;17.63;80.07;99062.45;112210;1193;61964;-88
2021/10/04 08:30:09;;;;;;;;;;;;;;;17.74;79.84;99060.77;112327;1193;62678;-89
2021/10/04 08:32:36;;;;;;;;;;;;;;;17.83;79.36;99057.38;112314;1193;61835;-90
2021/10/04 08:35:04;;;;;;;;;;;;;;;17.91;78.92;99055.53;112346;1193;61928;-90
2021/10/04 08:37:32;;;;;;;;;;;;;;;18.02;78.89;99054.66;112400;1193;65408;-91
2021/10/04 08:39:59;;;;;;;;;;;;;;;18.12;78.46;99053.66;112290;1193;61914;-91
2021/10/04 08:42:27;;;;;;;;;;;;;;;18.23;77.71;99054.59;112251;1195;64232;-91
2021/10/04 08:44:54;;;;;;;;;;;;;;;18.31;77.61;99052.73;112321;1193;61893;-91
2021/10/04 08:47:23;;;;;;;;;;;;;;;18.38;76.53;99053.26;112283;1193;61819;-91
2021/10/04 08:49:50;;;;;;;;;;;;;;;18.45;76.74;99052.62;112367;1193;66841;-91
2021/10/04 08:52:17;;;;;;;;;;;;;;;18.53;76.88;99051.42;112299;1193;61811;-92
2021/10/04 08:54:45;;;;;;;;;;;;;;;18.61;76.57;99048.65;112245;1193;63986;-90
2021/10/04 08:57:11;;;;;;;;;;;;;;;18.68;76.13;99051.42;112233;1193;61785;-91
2021/10/04 08:59:39;;;;;;;;;;;;;;;18.73;75.83;99052.96;112276;1193;61847;-91
2021/10/04 09:02:18;;;;;;;;;;;;;;;18.78;75.13;99054.63;112223;1196;66933;-91
2021/10/04 09:04:45;;;;;;;;;;;;;;;18.79;74.73;99054.41;112344;1193;62304;-93
2021/10/04 09:07:11;;;;;;;;;;;;;;;18.85;74.97;99053.16;112332;1196;64180;-93
2021/10/04 09:09:51;;;;;;;;;;;;;;;18.93;74.92;99053.48;112199;1193;61965;-92
2021/10/04 09:12:21;;;;;;;;;;;;;;;18.99;74.16;99052.43;112310;1193;61893;-93
2021/10/04 09:14:48;;;;;;;;;;;;;;;19.05;74.29;99049.30;112313;1193;65445;-92
2021/10/04 09:17:14;;;;;;;;;;;;;;;19.15;74.06;99044.59;112309;1193;61973;-89
2021/10/04 09:19:43;;;;;;;;;;;;;;;19.20;73.79;99046.39;112249;1193;64100;-91
2021/10/04 09:22:09;;;;;;;;;;;;;;;19.31;74.35;99047.42;112271;1193;61841;-90
2021/10/04 09:24:37;;;;;;;;;;;;;;;19.44;74.19;99039.95;112338;1193;61884;-89
2021/10/04 09:27:21;;;;;;;;;;;;;;;19.52;73.79;99040.54;112304;1193;66818;-90
2021/10/04 09:29:49;;;;;;;;;;;;;;;19.60;73.46;99036.71;112292;1193;61829;-89
2021/10/04 09:32:26;;;;;;;;;;;;;;;19.70;73.74;99039.27;112339;1193;62663;-89
2021/10/04 09:35:09;;;;;;;;;;;;;;;19.78;72.83;99039.15;112243;1195;61868;-89
2021/10/04 09:37:36;;;;;;;;;;;;;;;19.82;72.68;99037.29;112234;1193;62000;-88
2021/10/04 09:40:03;;;;;;;;;;;;;;;19.91;72.69;99037.11;112302;1193;66842;-88
2021/10/04 09:42:37;;;;;;;;;;;;;;;19.97;72.31;99038.06;112262;1193;61859;-88
2021/10/04 09:45:04;;;;;;;;;;;;;;;20.02;72.71;99036.67;112235;1196;62667;-89
2021/10/04 09:47:35;;;;;;;;;;;;;;;20.12;72.93;99039.41;112259;1195;61871;-88
2021/10/04 09:50:15;;;;;;;;;;;;;;;20.22;72.66;99038.00;112312;1193;61804;-89
2021/10/04 09:52:47;;;;;;;;;;;;;;;20.32;72.62;99035.48;112245;1193;66823;-89
2021/10/04 09:55:21;;;;;;;;;;;;;;;20.40;72.18;99034.77;112213;1195;61742;-89
2021/10/04 09:57:56;;;;;;;;;;;;;;;20.46;72.23;99032.53;112237;1194;64050;-90
2021/10/04 10:00:22;;;;;;;;;;;;;;;20.55;72.33;99032.92;112237;1193;61852;-91
2021/10/04 10:02:54;;;;;;;;;;;;;;;20.65;71.94;99029.57;112238;1193;61832;-91
2021/10/04 10:05:25;;;;;;;;;;;;;;;20.70;71.38;99031.38;112181;1193;65492;-91
2021/10/04 10:07:52;;;;;;;;;;;;;;;20.74;70.71;99028.25;112319;1193;61829;-90
2021/10/04 10:10:20;;;;;;;;;;;;;;;20.78;70.99;99025.59;112278;1193;63999;-90
2021/10/04 10:12:46;;;;;;;;;;;;;;;20.91;71.09;99025.27;112269;1193;61852;-91
2021/10/04 10:15:21;;;;;;;;;;;;;;;20.98;70.71;99021.41;112259;1195;61936;-90
2021/10/04 10:17:50;;;;;;;;;;;;;;;21.06;70.84;99018.73;112293;1193;66810;-90
2021/10/04 10:20:19;;;;;;;;;;;;;;;21.13;70.78;99013.63;112284;1193;61778;-90
2021/10/04 10:22:47;;;;;;;;;;;;;;;21.20;70.72;99013.17;112238;1196;64033;-90
2021/10/04 10:25:27;;;;;;;;;;;;;;;21.25;69.77;99014.83;112263;1193;61771;-90
2021/10/04 10:27:54;;;;;;;;;;;;;;;21.24;69.79;99009.21;112274;1193;61917;-90
2021/10/04 10:30:23;;;;;;;;;;;;;;;21.27;69.90;99007.92;112246;1195;66904;-90
2021/10/04 10:32:50;;;;;;;;;;;;;;;21.36;70.35;99003.38;112325;1193;61881;-91
2021/10/04 10:35:17;;;;;;;;;;;;;;;21.43;69.83;99003.80;112281;1193;62781;-88
2021/10/04 10:37:46;;;;;;;;;;;;;;;21.45;69.46;99003.55;112330;1193;61865;-90
2021/10/04 10:40:14;;;;;;;;;;;;;;;21.55;69.79;98999.42;112263;1193;62201;-88
2021/10/04 10:42:57;;;;;;;;;;;;;;;21.65;69.66;99002.64;112485;1193;65487;-88
2021/10/04 10:45:24;;;;;;;;;;;;;;;21.73;69.43;98999.26;112379;1193;61884;-90
2021/10/04 10:47:52;;;;;;;;;;;;;;;21.79;68.89;98998.94;112993;1193;63938;-88
2021/10/04 10:50:28;;;;;;;;;;;;;;;21.83;68.95;98995.66;113590;1193;61803;-87
2021/10/04 10:52:54;;;;;;;;;;;;;;;21.92;69.20;98992.14;113118;1193;61791;-89
2021/10/04 10:55:21;;;;;;;;;;;;;;;21.99;69.16;98996.05;113583;1193;66860;-88
2021/10/04 10:57:57;;;;;;;;;;;;;;;22.01;68.69;98995.27;112674;1193;61721;-88
2021/10/04 11:00:26;;;;;;;;;;;;;;;22.03;68.50;98994.38;112261;1193;63995;-91
2021/10/04 11:02:59;;;;;;;;;;;;;;;22.05;68.53;98998.55;112302;1193;61753;-89
2021/10/04 11:05:31;;;;;;;;;;;;;;;22.08;68.28;98999.36;112331;1193;61878;-90
2021/10/04 11:07:58;;;;;;;;;;;;;;;22.10;68.24;98997.32;112309;1193;65268;-91
2021/10/04 11:10:24;;;;;;;;;;;;;;;22.13;68.18;98999.34;112315;1193;61852;-90
2021/10/04 11:13:06;;;;;;;;;;;;;;;22.17;68.37;98996.15;112322;1193;63605;-88
2021/10/04 11:15:36;;;;;;;;;;;;;;;22.21;68.09;98997.27;112317;1193;61903;-90
2021/10/04 11:18:03;;;;;;;;;;;;;;;22.24;67.93;98997.60;112252;1193;61778;-90
2021/10/04 11:20:30;;;;;;;;;;;;;;;22.26;67.42;98998.40;112298;1193;66983;-91
2021/10/04 11:23:03;;;;;;;;;;;;;;;22.23;66.71;98998.45;112274;1196;61825;-89
2021/10/04 11:25:39;;;;;;;;;;;;;;;22.17;66.99;98995.70;112313;1193;64855;-89
2021/10/04 11:28:07;;;;;;;;;;;;;;;22.17;66.98;98997.30;112295;1193;61929;-89
2021/10/04 11:30:52;;;;;;;;;;;;;;;22.17;66.93;98993.15;112349;1193;62355;-88
2021/10/04 11:33:18;;;;;;;;;;;;;;;22.16;67.02;98992.71;112236;1193;65667;-90
2021/10/04 11:35:55;;;;;;;;;;;;;;;22.17;67.26;98996.91;112302;1193;61829;-88
2021/10/04 11:38:22;;;;;;;;;;;;;;;22.13;67.05;98997.85;112261;1195;74364;-88
2021/10/04 11:40:49;;;;;;;;;;;;;;;22.17;67.09;98995.67;112317;1193;61884;-88
2021/10/04 11:43:16;;;;;;;;;;;;;;;22.18;67.30;98992.81;112308;1193;61813;-88
2021/10/04 11:45:42;;;;;;;;;;;;;;;22.18;66.23;98989.39;112262;1195;66815;-89
2021/10/04 11:48:09;;;;;;;;;;;;;;;22.17;65.85;98988.06;112307;1193;61924;-89
2021/10/04 11:50:44;;;;;;;;;;;;;;;22.18;65.99;98983.83;112318;1193;62649;-89
2021/10/04 11:53:13;;;;;;;;;;;;;;;22.19;65.79;98984.44;112295;1193;61785;-90
2021/10/04 11:55:40;;;;;;;;;;;;;;;22.21;65.88;98983.93;112274;1193;61851;-90
2021/10/04 11:58:11;;;;;;;;;;;;;;;22.23;65.33;98984.68;112241;1194;66837;-90
2021/10/04 12:00:44;;;;;;;;;;;;;;;22.25;65.12;98987.09;112285;1193;61785;-90
2021/10/04 12:03:10;;;;;;;;;;;;;;;22.26;65.07;98985.53;112337;1193;64082;-89
2021/10/04 12:05:37;;;;;;;;;;;;;;;22.29;64.94;98983.20;112303;1193;61785;-89
2021/10/04 12:08:03;;;;;;;;;;;;;;;22.31;65.09;98983.73;112295;1193;61677;-90
2021/10/04 12:10:36;;;;;;;;;;;;;;;22.34;65.24;98979.86;112331;1193;66532;-88
2021/10/04 12:13:03;;;;;;;;;;;;;;;22.39;65.14;98979.89;112275;1193;62397;-90
2021/10/04 12:15:30;;;;;;;;;;;;;;;22.40;64.65;98979.62;112317;1193;64022;-90
2021/10/04 12:17:56;;;;;;;;;;;;;;;22.38;64.64;98978.08;112318;1193;61842;-90
2021/10/04 12:20:23;;;;;;;;;;;;;;;22.38;64.66;98978.06;112301;1193;61778;-88
2021/10/04 12:22:50;;;;;;;;;;;;;;;22.40;64.79;98975.79;112316;1193;66810;-91
2021/10/04 12:25:24;;;;;;;;;;;;;;;22.43;64.87;98970.54;112229;1193;62200;-89
2021/10/04 12:28:00;;;;;;;;;;;;;;;22.48;65.09;98966.37;112330;1193;62603;-89
2021/10/04 12:30:39;;;;;;;;;;;;;;;22.50;64.96;98963.90;112365;1193;61838;-88
2021/10/04 12:33:06;;;;;;;;;;;;;;;22.52;65.13;98965.86;112298;1193;61843;-89
2021/10/04 12:35:32;;;;;;;;;;;;;;;22.53;64.81;98967.00;112378;1193;65483;-89
2021/10/04 12:38:02;;;;;;;;;;;;;;;22.54;64.84;98964.42;112239;1194;61883;-89
2021/10/04 12:40:31;;;;;;;;;;;;;;;22.54;64.44;98962.73;112334;1193;64009;-88